createdAt,value
2022-12-09T00:59:46.104Z,98294.72
2022-12-09T01:19:51.211Z,98302.63
2022-12-09T01:39:53.237Z,98286.50
2022-12-09T01:59:55.128Z,98283.69
2022-12-09T02:19:57.322Z,98270.34
2022-12-09T02:39:59.364Z,98273.16
2022-12-09T03:00:04.298Z,98255.91
2022-12-09T03:20:07.052Z,98277.63
2022-12-09T03:40:14.109Z,98246.03
2022-12-09T04:00:16.390Z,98203.03
2022-12-09T04:20:18.056Z,98199.91
2022-12-09T04:40:23.760Z,98195.16
2022-12-09T05:00:26.339Z,98196.63
2022-12-09T05:20:28.189Z,98182.31
2022-12-09T05:40:30.377Z,98166.00
2022-12-09T06:00:32.028Z,98124.53
2022-12-09T06:20:34.272Z,98078.09
2022-12-09T06:40:36.334Z,98078.06
2022-12-09T07:00:38.400Z,98077.56
2022-12-09T07:20:40.345Z,98075.75
2022-12-09T07:40:42.369Z,98054.63
2022-12-09T08:00:44.691Z,98039.28
2022-12-09T08:20:50.906Z,97996.41
2022-12-09T08:40:57.796Z,97985.03
2022-12-09T09:21:47.994Z,97991.03
2022-12-09T11:03:46.552Z,97821.75
2022-12-09T11:23:49.561Z,97769.31
2022-12-09T11:43:51.250Z,97740.94
2022-12-09T12:03:54.194Z,97736.75
2022-12-09T12:23:55.717Z,97725.84
2022-12-09T13:04:33.216Z,97690.38
2022-12-09T13:24:35.442Z,97658.56
2022-12-09T13:44:37.230Z,97639.66
2022-12-09T14:04:39.132Z,97590.66
2022-12-09T15:47:02.500Z,97467.31
2022-12-09T16:07:06.872Z,97444.53
2022-12-09T16:27:08.649Z,97448.22
2022-12-09T16:47:10.261Z,97433.22
2022-12-09T17:07:11.841Z,97414.63
2022-12-09T17:27:14.031Z,97409.63
2022-12-09T17:47:17.484Z,97383.53
2022-12-09T18:07:19.167Z,97395.75
2022-12-09T18:27:31.218Z,97379.31
2022-12-09T19:28:56.620Z,97399.38
2022-12-09T20:30:45.950Z,97425.34
2022-12-09T20:50:49.192Z,97436.25
2022-12-09T21:31:16.605Z,97458.56
